createdAt,value
2023-04-30T00:01:43.622Z,6.25
2023-04-30T00:04:48.305Z,6.70
2023-04-30T00:07:53.147Z,6.73
2023-04-30T00:14:42.149Z,6.79
2023-04-30T00:17:46.938Z,6.62
2023-04-30T00:20:56.308Z,6.85
2023-04-30T00:24:03.863Z,6.92
2023-04-30T00:27:09.636Z,7.14
2023-04-30T00:30:14.365Z,6.76
2023-04-30T00:33:19.437Z,6.89
2023-04-30T00:36:27.306Z,7.23
2023-04-30T00:39:32.082Z,7.55
2023-04-30T00:42:36.666Z,7.06
2023-04-30T00:45:41.244Z,7.58
2023-04-30T00:48:49.840Z,7.67
2023-04-30T00:51:56.123Z,7.57
2023-04-30T00:55:01.140Z,7.77
2023-04-30T00:58:09.197Z,6.79
2023-04-30T01:01:34.188Z,7.03
2023-04-30T01:04:40.864Z,6.91
2023-04-30T01:07:47.273Z,7.29
2023-04-30T01:11:20.056Z,6.92
2023-04-30T01:15:03.105Z,7.54
2023-04-30T01:18:23.333Z,7.55
2023-04-30T01:21:35.061Z,7.64
2023-04-30T01:25:01.351Z,8.18
2023-04-30T01:28:11.378Z,8.15
2023-04-30T01:31:19.527Z,8.36
2023-04-30T01:34:28.309Z,8.33
2023-04-30T01:37:42.145Z,8.53
2023-04-30T01:40:58.454Z,8.04
2023-04-30T01:44:12.259Z,8.34
2023-04-30T01:47:36.910Z,8.45
2023-04-30T01:51:00.790Z,8.25
2023-04-30T01:54:30.587Z,8.42
2023-04-30T01:57:47.029Z,8.72
2023-04-30T02:00:52.686Z,9.00
2023-04-30T02:03:57.945Z,9.16
2023-04-30T02:07:02.784Z,9.21
2023-04-30T02:10:11.973Z,9.13
2023-04-30T02:13:18.796Z,8.96
2023-04-30T02:23:53.429Z,8.61
2023-04-30T02:26:57.936Z,9.34
2023-04-30T02:30:02.793Z,9.20
2023-04-30T02:33:13.096Z,9.53
2023-04-30T02:36:17.950Z,9.60
2023-04-30T02:39:33.984Z,9.68
2023-04-30T02:42:38.815Z,9.43
2023-04-30T02:45:43.886Z,9.25
2023-04-30T02:48:52.783Z,8.95
2023-04-30T02:52:06.905Z,9.36
2023-04-30T02:55:13.898Z,9.08
2023-04-30T02:58:25.692Z,9.24
2023-04-30T03:01:32.430Z,9.15
2023-04-30T03:04:36.879Z,9.26
2023-04-30T03:07:42.953Z,9.25
2023-04-30T03:10:55.360Z,9.44
2023-04-30T03:14:17.759Z,9.30
2023-04-30T03:17:25.697Z,9.34
2023-04-30T03:20:33.218Z,9.11
2023-04-30T03:23:40.958Z,9.14
2023-04-30T03:26:48.497Z,9.23
2023-04-30T03:29:54.761Z,9.30
2023-04-30T03:32:59.563Z,9.00
2023-04-30T03:36:04.178Z,9.30
2023-04-30T03:39:12.188Z,9.26
2023-04-30T03:42:19.505Z,8.93
2023-04-30T03:45:23.988Z,8.97
2023-04-30T03:48:28.536Z,9.02
2023-04-30T03:51:42.541Z,8.73
2023-04-30T03:54:47.766Z,9.01
2023-04-30T03:57:54.326Z,8.63
2023-04-30T04:01:01.807Z,9.01
2023-04-30T04:04:12.526Z,8.96
2023-04-30T04:07:17.114Z,8.96
2023-04-30T04:10:21.924Z,8.90
2023-04-30T04:13:27.084Z,9.00
2023-04-30T04:16:36.676Z,9.00
2023-04-30T04:19:47.411Z,8.91
2023-04-30T04:22:54.170Z,9.32
2023-04-30T04:26:02.627Z,9.10
2023-04-30T04:29:06.838Z,9.08
2023-04-30T04:32:19.668Z,8.95
2023-04-30T04:35:24.195Z,8.91
2023-04-30T04:38:28.898Z,9.19
2023-04-30T04:41:39.225Z,9.47
2023-04-30T04:44:44.704Z,9.58
2023-04-30T04:47:54.632Z,9.64
2023-04-30T04:50:58.736Z,9.72
2023-04-30T04:54:03.454Z,9.78
2023-04-30T04:57:07.687Z,9.19
2023-04-30T05:00:13.582Z,9.57
2023-04-30T05:03:18.770Z,9.73
2023-04-30T05:06:23.195Z,9.59
2023-04-30T05:09:28.543Z,9.60
2023-04-30T05:12:33.297Z,9.51
2023-04-30T05:15:41.662Z,9.48
2023-04-30T05:18:45.515Z,9.53
2023-04-30T05:21:53.995Z,9.49
2023-04-30T05:28:37.815Z,8.71
2023-04-30T05:31:42.748Z,8.75
2023-04-30T05:34:47.715Z,8.74
2023-04-30T05:37:53.349Z,8.94
2023-04-30T05:41:02.887Z,9.10
2023-04-30T05:44:07.401Z,8.93
2023-04-30T05:47:11.813Z,9.00
2023-04-30T05:50:17.007Z,8.93
2023-04-30T05:53:21.789Z,8.93
2023-04-30T05:56:26.596Z,8.93
2023-04-30T05:59:31.294Z,8.92
2023-04-30T06:02:36.290Z,8.93
2023-04-30T06:05:42.279Z,8.85
2023-04-30T06:08:48.987Z,8.89
2023-04-30T06:11:58.216Z,8.78
2023-04-30T06:15:02.773Z,8.76
2023-04-30T06:18:09.296Z,8.80
2023-04-30T06:21:13.356Z,8.81
2023-04-30T06:24:17.765Z,8.79
2023-04-30T06:27:22.675Z,8.85
2023-04-30T06:31:00.768Z,8.32
2023-04-30T06:34:06.850Z,8.49
2023-04-30T06:37:13.078Z,8.24
2023-04-30T06:40:17.513Z,8.23
2023-04-30T06:43:22.799Z,8.33
2023-04-30T06:46:29.650Z,8.38
2023-04-30T06:49:42.502Z,8.32
2023-04-30T06:52:49.796Z,7.76
2023-04-30T06:56:06.494Z,7.90
2023-04-30T06:59:27.424Z,7.57
2023-04-30T07:02:32.260Z,7.58
2023-04-30T07:05:47.307Z,7.50
2023-04-30T07:09:03.118Z,7.15
2023-04-30T07:12:07.655Z,6.99
2023-04-30T07:15:19.902Z,7.13
2023-04-30T07:18:27.325Z,6.89
2023-04-30T07:21:34.822Z,6.87
2023-04-30T07:24:38.807Z,6.79
2023-04-30T07:27:42.980Z,6.82
2023-04-30T07:30:47.749Z,6.66
2023-04-30T07:33:52.216Z,6.72
2023-04-30T07:36:59.798Z,6.78
2023-04-30T07:40:06.032Z,6.62
2023-04-30T07:43:14.951Z,6.59
2023-04-30T07:46:20.536Z,6.50
2023-04-30T07:49:24.795Z,6.64
2023-04-30T07:52:28.886Z,6.64
2023-04-30T07:55:33.800Z,6.51
2023-04-30T07:58:39.709Z,6.60
2023-04-30T08:01:43.879Z,6.78
2023-04-30T08:04:48.479Z,6.61
2023-04-30T08:07:54.398Z,6.61
2023-04-30T08:10:59.102Z,6.64
2023-04-30T08:14:07.812Z,6.64
2023-04-30T08:17:12.906Z,6.88
2023-04-30T08:20:19.879Z,6.62
2023-04-30T08:23:24.438Z,6.27
2023-04-30T08:26:33.512Z,6.33
2023-04-30T08:29:42.067Z,6.46
2023-04-30T08:32:46.698Z,6.59
2023-04-30T08:35:51.920Z,6.68
2023-04-30T08:38:56.644Z,6.76
2023-04-30T08:42:04.917Z,6.62
2023-04-30T08:45:15.327Z,6.32
2023-04-30T08:48:32.839Z,6.21
2023-04-30T08:51:42.823Z,6.45
2023-04-30T08:54:48.432Z,6.38
2023-04-30T08:57:53.060Z,6.34
2023-04-30T09:01:03.260Z,6.28
2023-04-30T09:04:10.845Z,6.32
2023-04-30T09:07:15.394Z,6.37
2023-04-30T09:10:21.805Z,6.37
2023-04-30T09:13:26.610Z,6.13
2023-04-30T09:16:46.349Z,6.14
2023-04-30T09:19:51.214Z,6.27
2023-04-30T09:23:12.312Z,6.13
2023-04-30T09:26:34.001Z,6.21
2023-04-30T09:29:40.409Z,6.15
2023-04-30T09:32:57.655Z,5.91
2023-04-30T09:36:10.836Z,5.80
2023-04-30T09:39:22.252Z,4.94
2023-04-30T09:42:27.656Z,5.77
2023-04-30T09:45:49.810Z,5.62
2023-04-30T09:49:05.217Z,5.47
2023-04-30T09:52:14.956Z,5.44
2023-04-30T09:55:20.894Z,5.36
2023-04-30T09:58:29.363Z,5.44
2023-04-30T10:01:39.729Z,5.20
2023-04-30T10:05:00.493Z,5.06
2023-04-30T10:08:09.726Z,5.23
2023-04-30T10:11:21.971Z,5.31
2023-04-30T10:14:35.177Z,5.31
2023-04-30T10:17:44.874Z,4.64
2023-04-30T10:20:52.231Z,5.44
2023-04-30T10:24:00.450Z,5.21
2023-04-30T10:27:04.966Z,5.21
2023-04-30T10:30:12.725Z,5.21
2023-04-30T10:33:20.965Z,5.16
2023-04-30T10:36:49.616Z,5.13
2023-04-30T10:39:59.564Z,4.57
2023-04-30T10:43:09.213Z,4.66
2023-04-30T10:46:13.597Z,5.02
2023-04-30T10:49:27.378Z,4.89
2023-04-30T10:52:32.554Z,5.33
2023-04-30T10:55:52.814Z,5.43
2023-04-30T10:59:03.151Z,5.18
2023-04-30T11:02:07.408Z,5.28
2023-04-30T11:05:13.345Z,5.20
2023-04-30T11:08:17.924Z,5.27
2023-04-30T11:11:22.296Z,5.24
2023-04-30T11:14:26.581Z,5.19
2023-04-30T11:17:30.912Z,4.80
2023-04-30T11:20:40.601Z,4.61
2023-04-30T11:23:50.436Z,5.01
2023-04-30T11:27:15.202Z,4.82
2023-04-30T11:30:19.934Z,4.60
2023-04-30T11:33:26.467Z,4.81
2023-04-30T11:36:37.180Z,4.76
2023-04-30T11:39:44.296Z,4.54
2023-04-30T11:42:54.906Z,4.08
2023-04-30T11:46:08.330Z,4.73
2023-04-30T11:49:17.233Z,4.54
2023-04-30T11:52:24.962Z,4.72
2023-04-30T11:55:55.529Z,4.67
2023-04-30T11:59:00.429Z,4.55
2023-04-30T12:02:53.463Z,4.15
2023-04-30T12:05:57.898Z,4.56
2023-04-30T12:09:08.089Z,4.47
2023-04-30T12:12:12.512Z,4.44
2023-04-30T12:15:19.139Z,4.02
2023-04-30T12:18:24.466Z,4.39
2023-04-30T12:21:32.257Z,4.20
2023-04-30T12:24:37.020Z,4.35
2023-04-30T12:27:44.625Z,4.29
2023-04-30T12:30:51.158Z,4.05
2023-04-30T12:33:59.416Z,4.21
2023-04-30T12:37:04.292Z,4.14
2023-04-30T12:40:10.659Z,3.99
2023-04-30T12:43:20.016Z,3.82
2023-04-30T12:46:31.647Z,3.96
2023-04-30T12:49:36.655Z,4.08
2023-04-30T12:52:50.226Z,4.08
2023-04-30T12:56:18.314Z,3.89
2023-04-30T12:59:23.532Z,3.78
2023-04-30T13:02:29.731Z,3.87
2023-04-30T13:05:33.833Z,3.82
2023-04-30T13:08:46.334Z,3.89
2023-04-30T13:12:04.087Z,3.53
2023-04-30T13:15:14.875Z,3.52
2023-04-30T13:18:24.311Z,3.56
2023-04-30T13:21:28.773Z,3.60
2023-04-30T13:24:34.089Z,3.44
2023-04-30T13:27:38.866Z,3.43
2023-04-30T13:30:43.984Z,3.21
2023-04-30T13:33:48.298Z,3.22
2023-04-30T13:36:56.023Z,3.24
2023-04-30T13:40:02.194Z,2.99
2023-04-30T13:43:10.350Z,3.08
2023-04-30T13:46:14.670Z,2.98
2023-04-30T13:49:19.450Z,3.22
2023-04-30T13:52:29.627Z,3.25
2023-04-30T13:55:34.386Z,3.31
2023-04-30T13:58:39.009Z,3.10
2023-04-30T14:01:42.872Z,3.03
2023-04-30T14:05:02.508Z,3.07
2023-04-30T14:08:10.026Z,3.13
2023-04-30T14:11:17.578Z,3.19
2023-04-30T14:14:21.757Z,3.20
2023-04-30T14:17:28.208Z,3.32
2023-04-30T14:20:32.791Z,3.27
2023-04-30T14:23:39.604Z,3.22
2023-04-30T14:26:49.381Z,3.26
2023-04-30T14:29:53.725Z,3.15
2023-04-30T14:32:57.816Z,3.22
2023-04-30T14:36:02.042Z,3.12
2023-04-30T14:39:06.093Z,3.15
2023-04-30T14:42:10.298Z,2.86
2023-04-30T14:45:14.701Z,3.04
2023-04-30T14:48:21.363Z,3.17
2023-04-30T14:51:28.953Z,3.07
2023-04-30T14:54:33.489Z,3.01
2023-04-30T14:57:38.157Z,3.21
2023-04-30T15:00:43.075Z,3.21
2023-04-30T15:03:47.704Z,3.30
2023-04-30T15:06:51.969Z,3.43
2023-04-30T15:09:58.800Z,3.48
2023-04-30T15:13:05.878Z,3.52
2023-04-30T15:16:10.019Z,3.62
2023-04-30T15:19:14.833Z,3.72
2023-04-30T15:22:22.379Z,3.53
2023-04-30T15:25:27.245Z,3.31
2023-04-30T15:28:34.320Z,3.50
2023-04-30T15:31:39.496Z,3.33
2023-04-30T15:34:43.934Z,3.40
2023-04-30T15:37:50.293Z,3.54
2023-04-30T15:40:54.864Z,3.39
2023-04-30T15:43:59.479Z,3.30
2023-04-30T15:47:04.185Z,3.34
2023-04-30T15:50:09.850Z,3.30
2023-04-30T15:53:14.625Z,3.33
2023-04-30T15:56:27.986Z,3.28
2023-04-30T15:59:32.670Z,3.32
2023-04-30T16:02:37.442Z,3.44
2023-04-30T16:05:43.142Z,3.48
2023-04-30T16:08:50.936Z,3.60
2023-04-30T16:11:56.514Z,3.50
2023-04-30T16:15:00.457Z,3.41
2023-04-30T16:18:05.079Z,3.35
2023-04-30T16:21:12.153Z,3.31
2023-04-30T16:24:17.319Z,3.57
2023-04-30T16:27:24.474Z,3.50
2023-04-30T16:30:29.085Z,3.50
2023-04-30T16:33:35.361Z,3.59
2023-04-30T16:36:42.659Z,3.17
2023-04-30T16:39:49.898Z,3.29
2023-04-30T16:42:54.416Z,3.32
2023-04-30T16:45:59.232Z,3.24
2023-04-30T16:49:06.441Z,3.13
2023-04-30T16:52:11.128Z,2.96
2023-04-30T16:55:16.029Z,2.95
2023-04-30T16:58:20.696Z,3.00
2023-04-30T17:01:25.361Z,2.99
2023-04-30T17:04:30.037Z,3.24
2023-04-30T17:07:34.828Z,3.20
2023-04-30T17:10:40.691Z,3.29
2023-04-30T17:13:45.204Z,3.53
2023-04-30T17:16:49.558Z,3.41
2023-04-30T17:19:53.768Z,3.63
2023-04-30T17:23:00.719Z,3.40
2023-04-30T17:26:05.021Z,3.48
2023-04-30T17:29:10.391Z,3.47
2023-04-30T17:32:18.210Z,3.42
2023-04-30T17:35:23.207Z,3.58
2023-04-30T17:38:27.797Z,3.69
2023-04-30T17:41:31.857Z,3.64
2023-04-30T17:44:36.171Z,3.36
2023-04-30T17:47:40.222Z,3.38
2023-04-30T17:50:45.699Z,3.58
2023-04-30T17:53:50.403Z,3.55
2023-04-30T17:56:54.599Z,3.36
2023-04-30T18:00:05.305Z,3.33
2023-04-30T18:03:18.552Z,3.47
2023-04-30T18:06:23.317Z,3.43
2023-04-30T18:09:27.933Z,3.35
2023-04-30T18:16:14.269Z,3.48
2023-04-30T18:19:19.692Z,3.48
2023-04-30T18:22:24.371Z,3.52
2023-04-30T18:25:29.160Z,3.62
2023-04-30T18:28:34.824Z,3.59
2023-04-30T18:31:39.090Z,3.50
2023-04-30T18:34:43.626Z,3.66
2023-04-30T18:37:48.102Z,3.56
2023-04-30T18:40:59.277Z,3.38
2023-04-30T18:44:04.704Z,3.33
2023-04-30T18:47:09.387Z,3.38
2023-04-30T18:50:19.543Z,3.19
2023-04-30T18:53:23.944Z,3.24
2023-04-30T18:56:28.568Z,3.31
2023-04-30T18:59:34.129Z,3.37
2023-04-30T19:02:39.478Z,3.38
2023-04-30T19:05:44.871Z,3.43
2023-04-30T19:08:49.449Z,3.47
2023-04-30T19:11:54.034Z,3.53
2023-04-30T19:15:01.731Z,3.53
2023-04-30T19:18:10.048Z,3.31
2023-04-30T19:21:15.623Z,3.40
2023-04-30T19:24:21.837Z,3.28
2023-04-30T19:27:26.469Z,3.28
2023-04-30T19:30:32.157Z,3.60
2023-04-30T19:33:40.003Z,3.64
2023-04-30T19:36:46.435Z,3.44
2023-04-30T19:39:50.770Z,3.71
2023-04-30T19:42:55.653Z,3.87
2023-04-30T19:46:00.444Z,3.73
2023-04-30T19:49:06.325Z,3.61
2023-04-30T19:52:12.816Z,3.58
2023-04-30T19:55:17.499Z,3.75
2023-04-30T19:58:22.183Z,3.73
2023-04-30T20:01:27.135Z,3.72
2023-04-30T20:04:31.794Z,3.75
2023-04-30T20:07:36.425Z,3.66
2023-04-30T20:10:41.876Z,3.55
2023-04-30T20:13:48.512Z,3.62
2023-04-30T20:16:57.315Z,3.69
2023-04-30T20:20:09.650Z,3.47
2023-04-30T20:23:16.523Z,3.69
2023-04-30T20:26:22.252Z,3.62
2023-04-30T20:29:30.249Z,3.79
2023-04-30T20:32:35.655Z,3.76
2023-04-30T20:35:48.031Z,3.74
2023-04-30T20:38:56.868Z,3.93
2023-04-30T20:42:02.302Z,3.89
2023-04-30T20:45:19.230Z,3.86
2023-04-30T20:48:28.106Z,3.91
2023-04-30T20:51:33.079Z,3.94
2023-04-30T20:54:37.389Z,3.87
2023-04-30T20:57:41.641Z,3.84
2023-04-30T21:00:46.712Z,4.23
2023-04-30T21:03:53.460Z,4.26
2023-04-30T21:06:57.832Z,4.23
2023-04-30T21:10:11.916Z,4.18
2023-04-30T21:13:18.869Z,4.23
2023-04-30T21:16:23.841Z,4.33
2023-04-30T21:19:32.426Z,4.49
2023-04-30T21:23:00.744Z,3.39
2023-04-30T21:26:08.289Z,4.19
2023-04-30T21:29:15.450Z,4.14
2023-04-30T21:32:23.022Z,4.28
2023-04-30T21:35:28.476Z,4.24
2023-04-30T21:38:33.440Z,4.36
2023-04-30T21:41:38.116Z,4.06
2023-04-30T21:44:42.500Z,4.37
2023-04-30T21:47:53.172Z,4.57
2023-04-30T21:51:00.887Z,4.48
2023-04-30T21:54:05.545Z,4.72
2023-04-30T21:57:10.245Z,4.65
2023-04-30T22:00:17.095Z,4.81
2023-04-30T22:03:27.845Z,4.89
2023-04-30T22:06:35.669Z,4.83
2023-04-30T22:09:39.937Z,4.70
2023-04-30T22:12:47.432Z,4.18
2023-04-30T22:15:53.529Z,5.37
2023-04-30T22:19:00.963Z,6.73
2023-04-30T22:22:07.652Z,8.46
2023-04-30T22:25:12.545Z,8.41
2023-04-30T22:28:18.904Z,9.37
2023-04-30T22:31:23.975Z,9.22
2023-04-30T22:34:31.386Z,9.37
2023-04-30T22:37:35.698Z,8.55
2023-04-30T22:40:40.622Z,8.68
2023-04-30T22:43:48.457Z,9.38
2023-04-30T22:46:58.530Z,8.80
2023-04-30T22:50:03.091Z,7.80
2023-04-30T22:53:08.083Z,8.14
2023-04-30T22:56:12.645Z,8.71
2023-04-30T22:59:17.232Z,7.88
2023-04-30T23:02:26.360Z,8.32
2023-04-30T23:05:31.072Z,9.47
2023-04-30T23:08:38.330Z,9.93
2023-04-30T23:11:47.969Z,9.51
2023-04-30T23:14:53.858Z,9.44
2023-04-30T23:18:00.512Z,8.92
2023-04-30T23:21:04.571Z,9.15
2023-04-30T23:24:08.847Z,9.80
2023-04-30T23:27:14.825Z,9.54
2023-04-30T23:30:21.237Z,10.35
2023-04-30T23:33:26.615Z,10.31
2023-04-30T23:36:30.877Z,11.24
2023-04-30T23:39:35.160Z,12.11
2023-04-30T23:42:39.800Z,12.62
2023-04-30T23:45:44.528Z,13.00
2023-04-30T23:48:51.553Z,13.46
2023-04-30T23:51:57.113Z,13.06
2023-04-30T23:55:01.953Z,12.87
2023-04-30T23:58:09.664Z,13.78
